createdAt,value
2022-11-29T18:09:17.344Z,100005.55
2022-11-29T18:10:21.486Z,100008.54
2022-11-29T18:11:26.278Z,100000.11
2022-11-29T18:12:30.892Z,100002.73
2022-11-29T18:13:34.977Z,99999.2
2022-11-29T18:14:39.163Z,99992.89
2022-11-29T18:15:43.286Z,100003.13
2022-11-29T18:16:47.964Z,100014.05
2022-11-29T18:17:52.295Z,100016.72
2022-11-29T18:18:56.402Z,100006.42
2022-11-29T18:20:00.552Z,100011.57
2022-11-29T18:21:04.655Z,100016.1
2022-11-29T18:22:08.755Z,100010.58
2022-11-29T18:23:12.902Z,100012.91
2022-11-29T18:24:17.002Z,100017.27
2022-11-29T18:25:40.327Z,100013.41
2022-11-29T18:26:44.724Z,100016.81
2022-11-29T18:27:48.857Z,100015.81
2022-11-29T18:28:52.966Z,100020.94
2022-11-29T18:29:57.081Z,100017.7
2022-11-29T18:31:01.343Z,100024.59
2022-11-29T18:32:05.521Z,100026.07
2022-11-29T18:33:09.639Z,100027.72
2022-11-29T18:34:13.804Z,100026.67
2022-11-29T18:35:17.898Z,100020.22
2022-11-29T18:36:22.016Z,100027.8
2022-11-29T18:38:15.039Z,100020.71
2022-11-29T18:39:20.125Z,100018.44
2022-11-29T18:40:24.241Z,100026.38
2022-11-29T18:41:28.330Z,100034.59
2022-11-29T18:42:32.499Z,100023.82
2022-11-29T18:43:38.641Z,100018.98
2022-11-29T18:44:44.876Z,100016.07
2022-11-29T18:45:49.710Z,100019.97
2022-11-29T18:46:53.927Z,100013.63
2022-11-29T18:47:58.019Z,100012
2022-11-29T18:49:02.116Z,100011.95
2022-11-29T18:50:06.230Z,100021.73
2022-11-29T18:51:10.334Z,100021.09
2022-11-29T18:52:14.442Z,100020.27
2022-11-29T18:53:18.585Z,100022.37
2022-11-29T18:54:22.755Z,100022.13
2022-11-29T18:55:26.905Z,100025
2022-11-29T18:56:31.006Z,100024.51
2022-11-29T18:57:35.126Z,100026.85
2022-11-29T18:58:39.259Z,100031.8
2022-11-29T18:59:43.364Z,100025.77
2022-11-29T19:00:47.472Z,100027.28
2022-11-29T19:01:51.754Z,100029.14
2022-11-29T19:02:56.060Z,100022.08
2022-11-29T19:04:00.243Z,100023.06
2022-11-29T19:05:10.543Z,100029.48
2022-11-29T19:06:17.990Z,100028.14
2022-11-29T19:07:22.616Z,100015.88
2022-11-29T19:08:26.929Z,100027.77
2022-11-29T19:09:31.038Z,100022.7
2022-11-29T19:10:35.144Z,100028.23
2022-11-29T19:11:39.256Z,100025.59
2022-11-29T19:12:43.391Z,100027.75
2022-11-29T19:13:47.503Z,100021.98
2022-11-29T19:14:52.305Z,100028.86
2022-11-29T19:15:56.951Z,100026.22
2022-11-29T19:17:01.267Z,100029.91
2022-11-29T19:18:05.355Z,100023.55
2022-11-29T19:19:09.458Z,100029.42
2022-11-29T19:20:13.568Z,100034.38
2022-11-29T19:21:17.676Z,100032.91
2022-11-29T19:22:21.789Z,100032.15
2022-11-29T19:23:26.026Z,100030.57
2022-11-29T19:24:30.168Z,100033.42
2022-11-29T19:25:34.274Z,100041.81
2022-11-29T19:26:38.375Z,100031.13
2022-11-29T19:27:42.493Z,100032.67
2022-11-29T19:28:46.592Z,100033.3
2022-11-29T19:29:51.172Z,100031.95
2022-11-29T19:30:55.409Z,100033.05
2022-11-29T19:31:59.653Z,100028.31
2022-11-29T19:33:03.812Z,100032.06
2022-11-29T19:34:07.914Z,100033.81
2022-11-29T19:35:12.012Z,100038.35
2022-11-29T19:36:16.123Z,100038.35
2022-11-29T19:37:20.247Z,100044.53
2022-11-29T19:38:24.464Z,100039.97
2022-11-29T19:39:28.587Z,100041.38
2022-11-29T19:40:32.708Z,100036.87
2022-11-29T19:41:36.836Z,99995.19
2022-11-29T19:42:40.947Z,100037.63
2022-11-29T19:43:45.050Z,100043.09
2022-11-29T19:45:19.774Z,100044.2
2022-11-29T19:46:24.022Z,100037.91
2022-11-29T19:47:28.215Z,100035.68
2022-11-29T19:48:32.334Z,100041.11
2022-11-29T19:49:36.441Z,100037.26
2022-11-29T19:50:40.557Z,100041.34
2022-11-29T19:51:44.692Z,100044.47
2022-11-29T19:52:48.808Z,100041.97
2022-11-29T19:53:52.903Z,100033.07
2022-11-29T19:54:57.023Z,100038.88
2022-11-29T19:56:01.119Z,100043.38
2022-11-29T19:57:05.232Z,100041.31
2022-11-29T19:58:09.357Z,100043.14
2022-11-29T19:59:13.472Z,100031.94
2022-11-29T20:00:17.803Z,100039.12
2022-11-29T20:01:22.087Z,100046.33
2022-11-29T20:02:26.743Z,100043.23
2022-11-29T20:03:31.140Z,100032.55
2022-11-29T20:04:35.269Z,100045.51
2022-11-29T20:05:39.365Z,100045.16
2022-11-29T20:06:43.473Z,100045.68
2022-11-29T20:07:47.748Z,100039.49
2022-11-29T20:08:51.970Z,100035.51
2022-11-29T20:09:56.081Z,100044.1
2022-11-29T20:11:00.230Z,100035.27
2022-11-29T20:12:04.391Z,100039.73
2022-11-29T20:13:08.509Z,100045.95
2022-11-29T20:14:12.614Z,100044.61
2022-11-29T20:15:16.720Z,100042.86
2022-11-29T20:16:21.009Z,100041.59
2022-11-29T20:17:25.322Z,100046.71
2022-11-29T20:18:29.434Z,100043.55
2022-11-29T20:19:33.533Z,100041.97
2022-11-29T20:20:37.683Z,100040.46
2022-11-29T20:21:41.817Z,100040.05
2022-11-29T20:22:45.933Z,100055.78
2022-11-29T20:23:50.051Z,100052.69
2022-11-29T20:24:54.144Z,100054.92
2022-11-29T20:25:58.262Z,100058.63
2022-11-29T20:27:02.360Z,100052.45
2022-11-29T20:28:06.459Z,100062.83
2022-11-29T20:29:10.558Z,100060.66
2022-11-29T20:30:14.671Z,100059.48
2022-11-29T20:31:19.067Z,100061.59
2022-11-29T20:32:23.290Z,100046.5
2022-11-29T20:33:27.369Z,100058.49
2022-11-29T20:34:31.482Z,100056.98
2022-11-29T20:35:35.591Z,100056.7
2022-11-29T20:36:39.708Z,100057.73
2022-11-29T20:37:43.811Z,100052.69
2022-11-29T20:38:47.907Z,100058.25
2022-11-29T20:39:51.994Z,100055.57
2022-11-29T20:41:03.110Z,100052.69
2022-11-29T20:42:07.439Z,100045.51
2022-11-29T20:43:11.553Z,100048.12
2022-11-29T20:44:15.665Z,100055.78
2022-11-29T20:45:19.771Z,100059.48
2022-11-29T20:46:24.001Z,100048.8
2022-11-29T20:47:28.196Z,100051.94
2022-11-29T20:48:32.309Z,100053.48
2022-11-29T20:49:36.526Z,100058.91
2022-11-29T20:50:40.635Z,100057.84
2022-11-29T20:51:44.723Z,100058.66
2022-11-29T20:52:48.842Z,100055.98
2022-11-29T20:53:52.954Z,100064.53
2022-11-29T20:54:57.060Z,100061.52
2022-11-29T20:56:01.144Z,100066.46
2022-11-29T20:57:05.271Z,100073.16
2022-11-29T20:58:09.386Z,100068.31
2022-11-29T20:59:13.472Z,100071.58
2022-11-29T21:00:17.659Z,100074.77
2022-11-29T21:01:22.023Z,100077.37
2022-11-29T21:02:26.191Z,100068.41
2022-11-29T21:03:30.392Z,100072.84
2022-11-29T21:04:34.659Z,100065.73
2022-11-29T21:05:38.780Z,100068.83
2022-11-29T21:06:42.900Z,100067.31
2022-11-29T21:07:47.165Z,100071.67
2022-11-29T21:08:51.436Z,100067.55
2022-11-29T21:10:02.151Z,100071.09
2022-11-29T21:11:06.358Z,100078.27
2022-11-29T21:12:10.473Z,100073.42
2022-11-29T21:13:14.582Z,100066.76
2022-11-29T21:14:18.712Z,100069.02
2022-11-29T21:15:22.814Z,100067.75
2022-11-29T21:16:27.045Z,100072.67
2022-11-29T21:17:34.742Z,100065.97
2022-11-29T21:18:38.853Z,100065.66
2022-11-29T21:19:42.989Z,100069.52
2022-11-29T21:20:47.094Z,100068.66
2022-11-29T21:21:51.187Z,100067.92
2022-11-29T21:22:55.277Z,100062.98
2022-11-29T21:23:59.366Z,100068.34
2022-11-29T21:25:03.485Z,100072.26
2022-11-29T21:26:07.672Z,100069.75
2022-11-29T21:27:11.788Z,100066.66
2022-11-29T21:28:15.887Z,100067.59
2022-11-29T21:29:20.005Z,100067.17
2022-11-29T21:30:24.110Z,100058.58
2022-11-29T21:31:28.375Z,100062.39
2022-11-29T21:32:32.625Z,100062.25
2022-11-29T21:33:36.725Z,100066.41
2022-11-29T21:34:40.827Z,100074.55
2022-11-29T21:35:44.929Z,100070.15
2022-11-29T21:36:49.017Z,100065.11
2022-11-29T21:37:53.122Z,100073.9
2022-11-29T21:39:03.690Z,100068.88
2022-11-29T21:40:09.123Z,100077.91
2022-11-29T21:41:13.242Z,100079.42
2022-11-29T21:42:17.344Z,100074.84
2022-11-29T21:43:43.558Z,100081.17
2022-11-29T21:45:16.375Z,100073.99
2022-11-29T21:46:20.640Z,100084.02
2022-11-29T21:47:24.870Z,100080.95
2022-11-29T21:48:28.972Z,100084.98
2022-11-29T21:49:33.071Z,100081.55
2022-11-29T21:50:37.178Z,100077.59
2022-11-29T21:51:41.280Z,100075.19
2022-11-29T21:52:45.383Z,100074.84
2022-11-29T21:53:49.505Z,100077.08
2022-11-29T21:54:53.606Z,100072.75
2022-11-29T21:55:57.745Z,100070.48
2022-11-29T21:57:01.866Z,100066.57
2022-11-29T21:58:06.007Z,100064.64
2022-11-29T21:59:10.111Z,100063.96
2022-11-29T22:00:14.233Z,100069.73
2022-11-29T22:01:18.547Z,100066.23
2022-11-29T22:02:23.285Z,100065.47
2022-11-29T22:03:27.530Z,100058.29
2022-11-29T22:04:31.639Z,100065.98
2022-11-29T22:05:35.747Z,100065.57
2022-11-29T22:06:39.857Z,100062.96
2022-11-29T22:07:44.052Z,100069.59
2022-11-29T22:08:48.309Z,100060.48
2022-11-29T22:09:52.458Z,100067.59
2022-11-29T22:10:56.544Z,100060.06
2022-11-29T22:12:06.590Z,100067.66
2022-11-29T22:13:36.964Z,100071.27
2022-11-29T22:14:41.090Z,100062.41
2022-11-29T22:15:45.367Z,100063.23
2022-11-29T22:16:49.584Z,100057.22
2022-11-29T22:17:53.681Z,100063.33
2022-11-29T22:18:57.813Z,100061.61
2022-11-29T22:20:01.922Z,100072.36
2022-11-29T22:21:06.015Z,100076.48
2022-11-29T22:22:10.139Z,100060.44
2022-11-29T22:23:14.277Z,100079.67
2022-11-29T22:24:18.406Z,100075.14
2022-11-29T22:25:22.520Z,100067.11
2022-11-29T22:26:26.631Z,100061.92
2022-11-29T22:27:30.744Z,100067.62
2022-11-29T22:28:34.839Z,100060.5
2022-11-29T22:29:38.951Z,100069.54
2022-11-29T22:30:43.059Z,100060.34
2022-11-29T22:31:47.296Z,100067.03
2022-11-29T22:32:51.553Z,100068.88
2022-11-29T22:33:55.739Z,100071.56
2022-11-29T22:34:59.863Z,100070.13
2022-11-29T22:36:03.965Z,100071.97
2022-11-29T22:37:08.191Z,100071.56
2022-11-29T22:38:12.296Z,100068.95
2022-11-29T22:39:16.383Z,100078.77
2022-11-29T22:40:20.492Z,100072.55
2022-11-29T22:41:24.585Z,100063.78
2022-11-29T22:42:28.694Z,100067.37
2022-11-29T22:43:32.805Z,100057.54
2022-11-29T22:44:36.889Z,100067.87
2022-11-29T22:45:40.998Z,100072
2022-11-29T22:46:45.236Z,100068.56
2022-11-29T22:47:49.446Z,100070.48
2022-11-29T22:48:53.526Z,100064.64
2022-11-29T22:49:57.652Z,100069.9
2022-11-29T22:51:01.765Z,100067.25
2022-11-29T22:52:05.841Z,100077.17
2022-11-29T22:53:09.962Z,100069.52
2022-11-29T22:54:14.074Z,100070.17
2022-11-29T22:55:18.176Z,100071.94
2022-11-29T22:56:22.333Z,100068.83
2022-11-29T22:57:26.425Z,100069.92
2022-11-29T22:58:30.522Z,100073.36
2022-11-29T22:59:34.642Z,100071.78
2022-11-29T23:00:38.840Z,100062.73
2022-11-29T23:01:43.325Z,100075.28
2022-11-29T23:02:47.566Z,100074.01
2022-11-29T23:03:51.748Z,100075.34
2022-11-29T23:04:55.872Z,100076.78
2022-11-29T23:05:59.977Z,100076.78
2022-11-29T23:07:04.095Z,100066.67
2022-11-29T23:08:08.193Z,100075.95
2022-11-29T23:09:12.290Z,100073.1
2022-11-29T23:10:16.412Z,100070.63
2022-11-29T23:11:20.525Z,100075.61
2022-11-29T23:12:24.622Z,100083.64
2022-11-29T23:13:28.709Z,100080.14
2022-11-29T23:14:32.799Z,100077.05
2022-11-29T23:15:36.909Z,100072.55
2022-11-29T23:16:41.163Z,100084.67
2022-11-29T23:17:45.436Z,100080.72
2022-11-29T23:18:49.544Z,100080.66
2022-11-29T23:19:53.646Z,100078.06
2022-11-29T23:20:57.744Z,100074.05
2022-11-29T23:22:01.856Z,100067.94
2022-11-29T23:23:05.946Z,100076.46
2022-11-29T23:24:10.035Z,100079.55
2022-11-29T23:25:14.143Z,100077.8
2022-11-29T23:26:18.246Z,100077.08
2022-11-29T23:27:22.446Z,100076.31
2022-11-29T23:28:26.565Z,100077.55
2022-11-29T23:29:30.653Z,100064.53
2022-11-29T23:30:34.761Z,100073.89
2022-11-29T23:31:39.106Z,100072.2
2022-11-29T23:32:43.362Z,100070.72
2022-11-29T23:33:47.480Z,100074.63
2022-11-29T23:34:51.608Z,100074.22
2022-11-29T23:35:55.729Z,100065.62
2022-11-29T23:36:59.839Z,100072.05
2022-11-29T23:38:03.948Z,100076.9
2022-11-29T23:39:08.087Z,100070.05
2022-11-29T23:40:12.204Z,100061.44
2022-11-29T23:41:16.295Z,100075.24
2022-11-29T23:42:20.389Z,100082
2022-11-29T23:43:24.500Z,100075.31
2022-11-29T23:44:28.618Z,100076.23
2022-11-29T23:45:32.882Z,100081.08
2022-11-29T23:46:37.063Z,100074
2022-11-29T23:47:41.162Z,100081.34
2022-11-29T23:48:45.249Z,100077.77
2022-11-29T23:49:49.352Z,100080.52
2022-11-29T23:50:53.461Z,100083.61
2022-11-29T23:51:57.548Z,100084.95
2022-11-29T23:53:01.639Z,100078.77
2022-11-29T23:54:05.735Z,100070.43
2022-11-29T23:55:09.854Z,100086.28
2022-11-29T23:56:13.961Z,100078.17
2022-11-29T23:57:18.066Z,100087.79
2022-11-29T23:58:22.168Z,100089.64
2022-11-29T23:59:26.259Z,100081.47
